Time;durP1;ratioP1;P1;durP2;ratioP2;P2;SDS_P1;SDS_P2;PMS_P1;PMS_P2;Temp;Humidity;BMP_temperature;BMP_pressure;BME280_temperature;BME280_humidity;BME280_pressure;Samples;Min_cycle;Max_cycle;Signal;HPM_P1;HPM_P2
2023/03/13 00:01:02;;;;;;;1.52;1.30;;;9.20;99.90;;;;;;6215981;23;20012;-73
2023/03/13 00:03:28;;;;;;;1.35;1.10;;;9.10;99.90;;;;;;6215875;23;20019;-72
2023/03/13 00:05:57;;;;;;;1.30;1.20;;;9.10;99.90;;;;;;6218033;23;20392;-73
2023/03/13 00:08:24;;;;;;;1.30;1.20;;;9.00;99.90;;;;;;6215865;23;20067;-72
2023/03/13 00:10:50;;;;;;;1.55;1.30;;;9.10;99.90;;;;;;6218269;23;20016;-72
2023/03/13 00:13:15;;;;;;;1.30;1.20;;;9.00;99.90;;;;;;6241584;23;20429;-72
2023/03/13 00:15:41;;;;;;;1.27;1.17;;;9.10;99.90;;;;;;6215970;23;20310;-72
2023/03/13 00:18:07;;;;;;;1.30;1.15;;;9.00;99.90;;;;;;6215518;23;20035;-72
2023/03/13 00:20:32;;;;;;;1.40;1.30;;;9.00;99.90;;;;;;6241406;23;20044;-72
2023/03/13 00:22:58;;;;;;;1.60;1.50;;;9.00;99.90;;;;;;6217408;23;20017;-72
2023/03/13 00:25:23;;;;;;;1.20;1.10;;;9.00;99.90;;;;;;6217018;23;20338;-72
2023/03/13 00:27:49;;;;;;;1.35;1.20;;;9.00;99.90;;;;;;6216948;23;20017;-72
2023/03/13 00:30:15;;;;;;;1.40;1.23;;;9.00;99.90;;;;;;6215146;23;20012;-72
2023/03/13 00:32:42;;;;;;;1.60;1.30;;;9.00;99.90;;;;;;6215347;23;20009;-72
2023/03/13 00:35:07;;;;;;;1.42;1.33;;;9.00;99.90;;;;;;6215531;23;20012;-72
2023/03/13 00:37:33;;;;;;;1.20;1.10;;;8.90;99.90;;;;;;6190211;23;20015;-72
2023/03/13 00:39:59;;;;;;;1.30;1.20;;;8.90;99.90;;;;;;6216278;23;20021;-72
2023/03/13 00:42:24;;;;;;;1.70;1.40;;;8.90;99.90;;;;;;6215384;23;20043;-72
2023/03/13 00:44:50;;;;;;;1.60;1.42;;;8.90;99.90;;;;;;6217351;23;20024;-72
2023/03/13 00:47:15;;;;;;;1.50;1.40;;;8.90;99.90;;;;;;6217199;23;20008;-72
2023/03/13 00:49:41;;;;;;;1.27;1.17;;;8.90;99.90;;;;;;6215275;23;20011;-72
2023/03/13 00:52:07;;;;;;;1.40;1.30;;;9.00;99.90;;;;;;6215230;23;20012;-72
2023/03/13 00:54:32;;;;;;;1.30;1.20;;;8.90;99.90;;;;;;6215010;23;20024;-72
2023/03/13 00:56:58;;;;;;;1.00;1.00;;;8.80;99.90;;;;;;6215124;23;20345;-72
2023/03/13 00:59:24;;;;;;;1.23;1.13;;;8.80;99.90;;;;;;6215062;23;20013;-71
2023/03/13 01:01:50;;;;;;;1.27;1.17;;;8.80;99.90;;;;;;6216989;23;20024;-72
2023/03/13 01:04:15;;;;;;;1.30;1.20;;;8.70;99.90;;;;;;6215062;23;20018;-71
2023/03/13 01:06:41;;;;;;;0.90;0.90;;;8.80;99.90;;;;;;6215010;23;20048;-72
2023/03/13 01:09:09;;;;;;;1.45;1.23;;;8.80;99.90;;;;;;6214987;23;20478;-72
2023/03/13 01:11:37;;;;;;;1.10;1.00;;;8.70;99.90;;;;;;6214904;23;20027;-72
2023/03/13 01:14:06;;;;;;;1.27;1.17;;;8.80;99.90;;;;;;6214994;23;20047;-72
2023/03/13 01:16:33;;;;;;;1.23;1.13;;;8.90;99.90;;;;;;6214984;23;20013;-72
2023/03/13 01:19:04;;;;;;;1.13;1.02;;;8.70;99.90;;;;;;6216607;23;20044;-72
2023/03/13 01:21:30;;;;;;;1.40;1.20;;;8.80;99.90;;;;;;6216910;23;20063;-72
2023/03/13 01:23:56;;;;;;;1.50;1.40;;;8.90;99.90;;;;;;6216864;23;20334;-72
2023/03/13 01:26:23;;;;;;;1.42;1.30;;;8.90;99.90;;;;;;6215061;23;20078;-72
2023/03/13 01:28:49;;;;;;;1.30;1.20;;;8.90;99.90;;;;;;6214863;23;20023;-72
2023/03/13 01:31:19;;;;;;;1.27;1.17;;;8.90;99.90;;;;;;6214839;23;20092;-73
2023/03/13 01:33:47;;;;;;;1.27;1.17;;;8.80;99.90;;;;;;6216690;23;20008;-72
2023/03/13 01:36:13;;;;;;;1.40;1.17;;;8.90;99.90;;;;;;6216790;23;20031;-72
2023/03/13 01:38:39;;;;;;;1.38;1.20;;;8.80;99.90;;;;;;6216605;23;20080;-72
2023/03/13 01:41:06;;;;;;;1.20;1.10;;;8.80;99.90;;;;;;6214350;23;20449;-72
2023/03/13 01:43:34;;;;;;;1.20;1.10;;;8.90;99.90;;;;;;6216566;23;20334;-72
2023/03/13 01:46:06;;;;;;;1.50;1.40;;;8.80;99.90;;;;;;6214672;23;20017;-72
2023/03/13 01:48:39;;;;;;;1.15;1.05;;;8.90;99.90;;;;;;6214629;23;20341;-72
2023/03/13 01:51:30;;;;;;;1.15;1.02;;;8.90;99.90;;;;;;6214605;23;20017;-72
2023/03/13 01:54:05;;;;;;;;;;;8.90;99.90;;;;;;6214755;23;20100;-72
2023/03/13 01:56:40;;;;;;;1.30;1.20;;;8.80;99.90;;;;;;6214637;23;19912;-72
2023/03/13 01:59:09;;;;;;;1.20;1.10;;;8.90;99.90;;;;;;6216191;23;20015;-72
2023/03/13 02:01:35;;;;;;;1.15;1.10;;;8.80;99.90;;;;;;6214473;23;20016;-72
2023/03/13 02:04:02;;;;;;;1.08;0.98;;;8.90;99.90;;;;;;6216650;23;20020;-72
2023/03/13 02:06:30;;;;;;;1.42;1.20;;;9.00;99.90;;;;;;6214896;23;20009;-72
2023/03/13 02:09:03;;;;;;;1.30;1.10;;;8.90;99.90;;;;;;6214607;23;20016;-72
2023/03/13 02:11:54;;;;;;;1.30;1.20;;;9.00;99.90;;;;;;6216358;23;20036;-72
2023/03/13 02:14:25;;;;;;;1.05;1.02;;;8.90;99.90;;;;;;6193566;23;20009;-72
2023/03/13 02:16:52;;;;;;;1.15;1.05;;;9.10;99.90;;;;;;6214485;23;20019;-72
2023/03/13 02:19:27;;;;;;;1.00;1.00;;;9.10;99.90;;;;;;6214528;23;20512;-72
2023/03/13 02:22:15;;;;;;;1.10;1.00;;;8.90;99.90;;;;;;6216192;23;20016;-72
2023/03/13 02:24:59;;;;;;;1.00;0.90;;;9.00;99.90;;;;;;6189385;23;20016;-72
2023/03/13 02:27:25;;;;;;;1.20;1.10;;;9.00;99.90;;;;;;6214351;23;20023;-72
2023/03/13 02:29:52;;;;;;;1.10;1.00;;;9.10;99.90;;;;;;6216123;23;20083;-72
2023/03/13 02:32:18;;;;;;;1.20;1.10;;;9.10;99.90;;;;;;6189285;23;20016;-72
2023/03/13 02:34:47;;;;;;;1.00;0.90;;;9.10;99.90;;;;;;6214321;23;20012;-72
2023/03/13 02:37:13;;;;;;;0.90;0.90;;;9.10;99.90;;;;;;6214384;23;20044;-72
2023/03/13 02:39:44;;;;;;;1.08;1.00;;;9.00;99.90;;;;;;6215306;23;20392;-72
2023/03/13 02:42:12;;;;;;;0.95;0.90;;;9.00;99.90;;;;;;6214264;23;20053;-72
2023/03/13 02:44:39;;;;;;;0.70;0.70;;;9.10;99.90;;;;;;6214248;23;20342;-72
2023/03/13 02:47:05;;;;;;;0.80;0.80;;;9.20;99.90;;;;;;6215757;23;20013;-72
2023/03/13 02:49:31;;;;;;;0.75;0.75;;;9.10;99.90;;;;;;6214413;23;20009;-72
2023/03/13 02:52:18;;;;;;;0.80;0.80;;;9.20;99.90;;;;;;6216053;23;20315;-72
2023/03/13 02:54:48;;;;;;;0.93;0.80;;;9.10;99.90;;;;;;6217421;23;20017;-72
2023/03/13 02:57:13;;;;;;;0.70;0.70;;;9.00;99.90;;;;;;6219100;23;20017;-72
2023/03/13 02:59:39;;;;;;;0.70;0.70;;;9.00;99.90;;;;;;6219270;23;20023;-72
2023/03/13 03:02:05;;;;;;;0.52;0.52;;;9.30;99.90;;;;;;6219565;23;20058;-72
2023/03/13 03:04:30;;;;;;;0.57;0.57;;;9.20;99.90;;;;;;6217756;23;20031;-72
2023/03/13 03:06:56;;;;;;;0.70;0.70;;;9.10;99.90;;;;;;6217633;23;20016;-72
2023/03/13 03:09:22;;;;;;;0.60;0.60;;;9.10;99.90;;;;;;6217726;23;20008;-73
2023/03/13 03:11:48;;;;;;;0.50;0.50;;;9.30;99.90;;;;;;6217451;23;20016;-72
2023/03/13 03:14:14;;;;;;;0.70;0.70;;;9.30;99.90;;;;;;6217658;23;20009;-73
2023/03/13 03:16:40;;;;;;;0.70;0.70;;;9.30;99.90;;;;;;6219454;23;20005;-72
2023/03/13 03:19:06;;;;;;;0.60;0.60;;;9.30;99.90;;;;;;6218380;23;20115;-72
2023/03/13 03:21:33;;;;;;;0.50;0.50;;;9.30;99.90;;;;;;6219558;23;20035;-72
2023/03/13 03:23:58;;;;;;;0.60;0.60;;;9.20;99.90;;;;;;6219668;23;20017;-72
2023/03/13 03:26:24;;;;;;;0.60;0.60;;;9.20;99.90;;;;;;6219562;23;20441;-72
2023/03/13 03:28:50;;;;;;;0.45;0.45;;;9.20;99.90;;;;;;6192713;23;20016;-72
2023/03/13 03:31:16;;;;;;;0.50;0.50;;;9.40;99.90;;;;;;6217686;23;20430;-72
2023/03/13 03:33:42;;;;;;;0.40;0.40;;;9.40;99.90;;;;;;6217601;23;20309;-72
2023/03/13 03:36:14;;;;;;;0.50;0.50;;;9.40;99.90;;;;;;6219178;23;20079;-72
2023/03/13 03:38:40;;;;;;;0.50;0.50;;;9.40;99.90;;;;;;6219409;23;20008;-72
2023/03/13 03:41:06;;;;;;;0.50;0.50;;;9.30;99.90;;;;;;6217532;23;20461;-72
2023/03/13 03:43:32;;;;;;;0.50;0.50;;;9.30;99.90;;;;;;6218933;23;20020;-72
2023/03/13 03:45:58;;;;;;;0.40;0.40;;;9.20;99.90;;;;;;6219379;23;20016;-72
2023/03/13 03:48:23;;;;;;;0.40;0.40;;;9.50;99.90;;;;;;6219392;23;20375;-72
2023/03/13 03:50:49;;;;;;;0.50;0.50;;;9.40;99.90;;;;;;6219259;23;20020;-72
2023/03/13 03:53:15;;;;;;;0.50;0.50;;;9.40;99.90;;;;;;6218690;23;20020;-72
2023/03/13 03:55:40;;;;;;;0.50;0.50;;;9.40;99.90;;;;;;6218880;23;20039;-72
2023/03/13 03:58:06;;;;;;;0.60;0.60;;;9.60;99.90;;;;;;6219236;23;20070;-72
2023/03/13 04:00:32;;;;;;;0.50;0.50;;;9.40;99.90;;;;;;6219238;23;20016;-72
2023/03/13 04:02:57;;;;;;;0.50;0.50;;;9.70;99.90;;;;;;6219215;23;20083;-72
2023/03/13 04:05:23;;;;;;;0.40;0.40;;;9.60;99.90;;;;;;6216253;23;20008;-72
2023/03/13 04:07:49;;;;;;;0.50;0.50;;;9.50;99.90;;;;;;6217635;23;20363;-72
2023/03/13 04:10:15;;;;;;;0.40;0.40;;;9.80;99.90;;;;;;6217567;23;20044;-72
2023/03/13 04:12:41;;;;;;;0.40;0.40;;;9.80;99.90;;;;;;6215810;23;20445;-72
2023/03/13 04:15:07;;;;;;;0.40;0.40;;;9.60;99.90;;;;;;6215750;23;20020;-72
2023/03/13 04:17:33;;;;;;;0.40;0.40;;;9.70;99.90;;;;;;6190673;23;20009;-72
2023/03/13 04:19:59;;;;;;;0.50;0.50;;;9.70;99.90;;;;;;6217758;23;20082;-72
2023/03/13 04:22:24;;;;;;;0.50;0.50;;;9.70;99.90;;;;;;6217569;23;20016;-72
2023/03/13 04:24:50;;;;;;;0.50;0.50;;;9.70;99.90;;;;;;6217527;23;20009;-72
2023/03/13 04:27:16;;;;;;;0.40;0.40;;;9.90;99.90;;;;;;6217592;23;20009;-72
2023/03/13 04:29:42;;;;;;;0.40;0.40;;;9.80;99.90;;;;;;6217324;23;20012;-72
2023/03/13 04:32:07;;;;;;;0.50;0.50;;;9.90;99.90;;;;;;6217443;23;20059;-72
2023/03/13 04:34:33;;;;;;;0.40;0.40;;;10.10;99.90;;;;;;6217227;23;20015;-72
2023/03/13 04:36:59;;;;;;;0.40;0.40;;;10.10;99.90;;;;;;6215522;23;20013;-72
2023/03/13 04:39:24;;;;;;;0.50;0.50;;;10.00;99.90;;;;;;6217455;23;20439;-72
2023/03/13 04:41:51;;;;;;;0.40;0.40;;;10.20;99.90;;;;;;6217531;23;20418;-72
2023/03/13 04:44:18;;;;;;;0.40;0.40;;;10.30;99.90;;;;;;6217376;23;20008;-72
2023/03/13 04:46:43;;;;;;;0.30;0.30;;;10.20;99.90;;;;;;6218065;23;20014;-72
2023/03/13 04:49:09;;;;;;;0.40;0.40;;;10.40;99.90;;;;;;6217039;23;20012;-72
2023/03/13 04:51:35;;;;;;;0.43;0.43;;;10.40;99.90;;;;;;6217205;23;20067;-72
2023/03/13 04:54:00;;;;;;;0.50;0.50;;;10.40;99.90;;;;;;6216857;23;20008;-72
2023/03/13 04:56:27;;;;;;;0.40;0.40;;;10.50;99.90;;;;;;6217837;23;20095;-72
2023/03/13 04:58:53;;;;;;;0.30;0.30;;;10.70;99.90;;;;;;6215329;23;20079;-72
2023/03/13 05:01:18;;;;;;;0.40;0.40;;;10.50;99.90;;;;;;6217140;23;20437;-72
2023/03/13 05:03:44;;;;;;;0.30;0.30;;;10.50;99.90;;;;;;6240440;23;20323;-73
2023/03/13 05:06:11;;;;;;;0.40;0.40;;;10.60;99.90;;;;;;6217277;23;20406;-72
2023/03/13 05:08:37;;;;;;;0.45;0.45;;;10.70;99.90;;;;;;6215195;23;20095;-72
2023/03/13 05:11:03;;;;;;;0.40;0.40;;;10.60;99.90;;;;;;6215196;23;20129;-72
2023/03/13 05:13:29;;;;;;;0.50;0.50;;;10.60;99.90;;;;;;6217093;23;20009;-72
2023/03/13 05:15:55;;;;;;;0.60;0.60;;;10.70;99.90;;;;;;6214807;23;20015;-72
2023/03/13 05:18:21;;;;;;;0.40;0.40;;;10.80;99.90;;;;;;6214944;23;20012;-73
2023/03/13 05:20:47;;;;;;;0.30;0.30;;;10.50;99.90;;;;;;6215070;23;20488;-72
2023/03/13 05:23:12;;;;;;;0.40;0.40;;;10.70;99.90;;;;;;6214929;23;20012;-72
2023/03/13 05:25:38;;;;;;;0.30;0.30;;;10.80;99.90;;;;;;6216775;23;20028;-72
2023/03/13 05:28:03;;;;;;;0.40;0.40;;;10.80;99.90;;;;;;6214949;23;20021;-73
2023/03/13 05:30:29;;;;;;;0.32;0.32;;;10.90;99.90;;;;;;6215105;23;20012;-73
2023/03/13 05:32:55;;;;;;;0.40;0.40;;;10.90;99.90;;;;;;6216879;23;20009;-72
2023/03/13 05:35:21;;;;;;;0.45;0.45;;;10.90;99.90;;;;;;6214927;23;20079;-72
2023/03/13 05:37:46;;;;;;;0.30;0.30;;;11.00;99.90;;;;;;6216798;23;20020;-73
2023/03/13 05:40:12;;;;;;;0.47;0.47;;;11.00;99.90;;;;;;6216714;23;20376;-72
2023/03/13 05:42:38;;;;;;;0.30;0.30;;;11.00;99.90;;;;;;6216442;23;20385;-72
2023/03/13 05:45:05;;;;;;;0.32;0.32;;;11.20;99.90;;;;;;6216706;23;20012;-73
2023/03/13 05:47:30;;;;;;;0.40;0.40;;;11.20;99.90;;;;;;6240306;23;20016;-71
2023/03/13 05:49:56;;;;;;;0.40;0.40;;;11.10;99.90;;;;;;6216378;23;20430;-72
2023/03/13 05:52:21;;;;;;;0.40;0.40;;;11.10;99.90;;;;;;6216753;23;20012;-72
2023/03/13 05:54:47;;;;;;;0.40;0.40;;;11.20;99.90;;;;;;6216280;23;20042;-71
2023/03/13 05:57:13;;;;;;;0.40;0.40;;;11.20;99.90;;;;;;6216656;23;20430;-72
2023/03/13 05:59:38;;;;;;;0.30;0.30;;;11.40;99.90;;;;;;6216508;23;20066;-72
2023/03/13 06:02:04;;;;;;;0.40;0.40;;;11.20;99.90;;;;;;6216523;23;20043;-72
2023/03/13 06:04:30;;;;;;;0.35;0.35;;;11.40;99.90;;;;;;6189628;23;20020;-72
2023/03/13 06:06:56;;;;;;;0.40;0.40;;;11.30;99.90;;;;;;6214809;23;20024;-74
2023/03/13 06:09:21;;;;;;;0.40;0.40;;;11.50;99.90;;;;;;6214672;23;20441;-72
2023/03/13 06:11:47;;;;;;;0.50;0.50;;;11.40;99.90;;;;;;6216499;23;20548;-72
2023/03/13 06:14:13;;;;;;;0.35;0.35;;;11.50;99.90;;;;;;6216520;23;20012;-72
2023/03/13 06:16:38;;;;;;;0.30;0.30;;;11.60;99.90;;;;;;6214580;23;20020;-72
2023/03/13 06:19:04;;;;;;;0.30;0.30;;;11.60;99.90;;;;;;6214574;23;20460;-69
2023/03/13 06:21:29;;;;;;;0.40;0.40;;;11.70;99.90;;;;;;6214668;23;20048;-72
2023/03/13 06:23:55;;;;;;;0.40;0.40;;;11.60;99.90;;;;;;6216398;23;20083;-72
2023/03/13 06:26:23;;;;;;;0.32;0.32;;;11.90;99.90;;;;;;6216364;23;20016;-72
2023/03/13 06:28:49;;;;;;;0.30;0.30;;;11.80;99.90;;;;;;6216212;23;20087;-72
2023/03/13 06:31:15;;;;;;;0.40;0.40;;;12.00;99.90;;;;;;6216023;23;20044;-72
2023/03/13 06:33:41;;;;;;;0.55;0.50;;;12.00;99.90;;;;;;6216387;23;20009;-72
2023/03/13 06:36:07;;;;;;;0.30;0.30;;;12.20;99.90;;;;;;6216537;23;20016;-72
2023/03/13 06:38:32;;;;;;;0.40;0.40;;;12.10;99.90;;;;;;6214585;23;20024;-72
2023/03/13 06:40:58;;;;;;;0.40;0.40;;;11.90;99.90;;;;;;6214627;23;20017;-72
2023/03/13 06:43:24;;;;;;;0.30;0.30;;;12.10;99.90;;;;;;6215431;23;20020;-72
2023/03/13 06:45:50;;;;;;;0.40;0.40;;;11.90;99.90;;;;;;6214540;23;20020;-72
2023/03/13 06:48:16;;;;;;;0.40;0.40;;;12.10;99.90;;;;;;6214475;23;20027;-72
2023/03/13 06:50:41;;;;;;;0.40;0.40;;;11.90;99.90;;;;;;6214425;23;20021;-72
2023/03/13 06:53:17;;;;;;;0.40;0.40;;;12.10;99.90;;;;;;6214401;23;20503;-72
2023/03/13 06:55:43;;;;;;;0.50;0.50;;;12.20;99.90;;;;;;6215880;23;20017;-72
2023/03/13 06:58:09;;;;;;;0.60;0.60;;;12.10;99.90;;;;;;6216315;23;20013;-72
2023/03/13 07:00:35;;;;;;;0.40;0.40;;;12.10;99.90;;;;;;6189286;23;20031;-72
2023/03/13 07:03:00;;;;;;;0.40;0.40;;;12.20;99.90;;;;;;6214233;23;20027;-71
2023/03/13 07:05:26;;;;;;;0.52;0.52;;;12.20;99.90;;;;;;6215948;23;20035;-72
2023/03/13 07:07:52;;;;;;;0.45;0.45;;;12.20;99.90;;;;;;6214292;23;20071;-72
2023/03/13 07:10:18;;;;;;;0.40;0.40;;;12.30;99.90;;;;;;6215923;23;20020;-72
2023/03/13 07:12:43;;;;;;;0.40;0.40;;;12.40;99.90;;;;;;6216125;23;20013;-72
2023/03/13 07:15:09;;;;;;;0.40;0.40;;;12.40;99.90;;;;;;6215709;23;20096;-72
2023/03/13 07:17:35;;;;;;;0.40;0.40;;;12.50;99.90;;;;;;6216055;23;20013;-71
2023/03/13 07:20:03;;;;;;;0.60;0.60;;;12.50;99.90;;;;;;6216308;23;20013;-72
2023/03/13 07:22:30;;;;;;;0.50;0.50;;;12.40;99.90;;;;;;6215736;23;20017;-75
2023/03/13 07:24:55;;;;;;;0.52;0.52;;;12.30;99.90;;;;;;6215893;23;20035;-73
2023/03/13 07:27:21;;;;;;;0.38;0.38;;;12.30;99.90;;;;;;6214120;23;20041;-72
2023/03/13 07:29:47;;;;;;;0.47;0.47;;;12.20;99.90;;;;;;6214075;23;20020;-71
2023/03/13 07:32:13;;;;;;;0.43;0.43;;;12.30;99.90;;;;;;6214256;23;20407;-71
2023/03/13 07:34:39;;;;;;;0.50;0.50;;;12.20;99.90;;;;;;6216741;23;20009;-71
2023/03/13 07:37:04;;;;;;;0.45;0.45;;;12.40;99.90;;;;;;6214279;23;20334;-73
2023/03/13 07:39:30;;;;;;;0.50;0.50;;;12.40;99.90;;;;;;6214305;23;20055;-74
2023/03/13 07:41:56;;;;;;;0.47;0.47;;;12.50;99.90;;;;;;6216033;23;20020;-71
2023/03/13 07:44:22;;;;;;;0.50;0.50;;;12.50;99.90;;;;;;6215976;23;20070;-72
2023/03/13 07:46:48;;;;;;;0.50;0.50;;;12.60;99.90;;;;;;6217917;23;20013;-72
2023/03/13 07:49:14;;;;;;;0.50;0.50;;;12.60;99.90;;;;;;6241658;23;20172;-72
2023/03/13 07:51:40;;;;;;;0.40;0.40;;;12.60;99.90;;;;;;6217461;23;20069;-72
2023/03/13 07:54:06;;;;;;;0.40;0.40;;;12.70;99.90;;;;;;6215603;23;20016;-72
2023/03/13 07:56:32;;;;;;;0.30;0.30;;;12.70;99.90;;;;;;6217272;23;20008;-72
2023/03/13 07:58:57;;;;;;;0.57;0.57;;;12.80;99.90;;;;;;6217708;23;20017;-72
2023/03/13 08:01:25;;;;;;;0.40;0.40;;;12.70;99.90;;;;;;6215847;23;20561;-72
2023/03/13 08:03:54;;;;;;;0.40;0.40;;;12.70;99.90;;;;;;6216208;23;20024;-72
2023/03/13 08:06:25;;;;;;;0.47;0.47;;;12.70;99.90;;;;;;6215865;23;20434;-74
2023/03/13 08:08:52;;;;;;;0.32;0.32;;;12.80;99.90;;;;;;6217732;23;20087;-74
2023/03/13 08:11:20;;;;;;;0.30;0.30;;;12.70;99.90;;;;;;6217602;23;20071;-73
2023/03/13 08:13:48;;;;;;;0.30;0.30;;;12.70;99.90;;;;;;6215717;23;20013;-73
2023/03/13 08:16:19;;;;;;;0.40;0.40;;;12.60;99.90;;;;;;6217249;23;20012;-73
2023/03/13 08:18:48;;;;;;;0.40;0.40;;;12.40;99.90;;;;;;6217527;23;20023;-74
2023/03/13 08:21:22;;;;;;;0.50;0.50;;;12.30;99.90;;;;;;6218281;23;20468;-74
2023/03/13 08:23:51;;;;;;;0.40;0.40;;;12.20;99.90;;;;;;6215793;23;20020;-74
2023/03/13 08:26:18;;;;;;;0.40;0.40;;;12.20;99.90;;;;;;6217556;23;20034;-74
2023/03/13 08:28:46;;;;;;;0.35;0.35;;;12.20;99.90;;;;;;6217452;23;20062;-74
2023/03/13 08:31:18;;;;;;;0.30;0.30;;;12.00;99.90;;;;;;6217346;23;20013;-74
2023/03/13 08:33:45;;;;;;;0.35;0.35;;;12.10;99.90;;;;;;6217107;23;20063;-73
2023/03/13 08:36:18;;;;;;;0.30;0.30;;;12.20;99.90;;;;;;6215530;23;20027;-74
2023/03/13 08:38:44;;;;;;;0.30;0.30;;;12.10;99.90;;;;;;6217450;23;20012;-73
2023/03/13 08:41:11;;;;;;;0.30;0.30;;;12.10;99.90;;;;;;6215411;23;20016;-74
2023/03/13 08:43:37;;;;;;;0.30;0.30;;;12.20;99.90;;;;;;6218300;23;20067;-74
2023/03/13 08:46:03;;;;;;;0.30;0.30;;;12.30;99.90;;;;;;6217241;23;20008;-74
2023/03/13 08:48:28;;;;;;;0.30;0.30;;;12.30;99.90;;;;;;6215442;23;20059;-74
2023/03/13 08:51:09;;;;;;;0.30;0.30;;;12.30;99.90;;;;;;6217197;23;20016;-74
2023/03/13 08:53:35;;;;;;;0.38;0.38;;;12.30;99.90;;;;;;6215347;23;20087;-73
2023/03/13 08:56:01;;;;;;;0.30;0.30;;;12.20;99.90;;;;;;6215444;23;20028;-74
2023/03/13 08:58:27;;;;;;;0.30;0.30;;;12.30;99.90;;;;;;6216912;23;20012;-74
2023/03/13 09:00:54;;;;;;;0.30;0.30;;;12.20;99.90;;;;;;6217210;23;20067;-74
2023/03/13 09:03:19;;;;;;;0.30;0.30;;;12.30;99.90;;;;;;6215296;23;20337;-74
2023/03/13 09:05:46;;;;;;;0.40;0.40;;;12.50;99.90;;;;;;6215259;23;20016;-74
2023/03/13 09:08:13;;;;;;;0.30;0.30;;;12.60;99.90;;;;;;6217065;23;20013;-74
2023/03/13 09:10:39;;;;;;;0.40;0.40;;;12.70;99.90;;;;;;6216928;23;20009;-73
2023/03/13 09:13:05;;;;;;;0.40;0.40;;;12.80;99.90;;;;;;6215252;23;20005;-73
2023/03/13 09:15:30;;;;;;;0.40;0.40;;;12.80;99.90;;;;;;6216993;23;20365;-74
2023/03/13 09:17:56;;;;;;;0.40;0.40;;;12.90;99.90;;;;;;6189945;23;20009;-73
2023/03/13 09:20:22;;;;;;;0.32;0.32;;;13.00;99.90;;;;;;6215653;23;20017;-74
2023/03/13 09:22:47;;;;;;;0.30;0.30;;;13.10;99.90;;;;;;6215000;23;20021;-74
2023/03/13 09:25:13;;;;;;;0.50;0.50;;;13.10;99.90;;;;;;6215028;23;20080;-74
2023/03/13 09:27:39;;;;;;;0.50;0.50;;;13.10;99.90;;;;;;6214995;23;20017;-74
2023/03/13 09:30:06;;;;;;;0.60;0.60;;;13.20;99.90;;;;;;6214933;23;20013;-75
2023/03/13 09:32:32;;;;;;;0.60;0.60;;;13.10;99.90;;;;;;6214947;23;20009;-74
2023/03/13 09:34:58;;;;;;;0.50;0.50;;;13.10;99.90;;;;;;6214991;23;20020;-73
2023/03/13 09:37:24;;;;;;;0.50;0.50;;;13.10;99.90;;;;;;6217079;23;20009;-75
2023/03/13 09:39:50;;;;;;;0.50;0.50;;;13.10;99.90;;;;;;6189866;23;20059;-75
2023/03/13 09:42:42;;;;;;;0.68;0.68;;;13.00;99.90;;;;;;6214930;23;20384;-75
2023/03/13 09:45:14;;;;;;;0.70;0.70;;;13.00;99.90;;;;;;6215046;23;20342;-75
2023/03/13 09:47:53;;;;;;;0.50;0.50;;;13.00;99.90;;;;;;6189957;23;20012;-75
2023/03/13 09:50:25;;;;;;;0.60;0.60;;;13.10;99.90;;;;;;6216837;23;20013;-75
2023/03/13 09:52:58;;;;;;;0.80;0.70;;;13.20;99.90;;;;;;6189785;23;20013;-75
2023/03/13 09:55:29;;;;;;;0.63;0.60;;;13.20;99.90;;;;;;6214533;23;20024;-74
2023/03/13 09:58:20;;;;;;;0.55;0.55;;;13.30;99.90;;;;;;6214903;23;20382;-74
2023/03/13 10:00:56;;;;;;;0.50;0.50;;;13.30;99.90;;;;;;6214817;23;20017;-74
2023/03/13 10:03:29;;;;;;;0.52;0.52;;;13.40;99.90;;;;;;6214560;23;20333;-74
2023/03/13 10:06:01;;;;;;;0.90;0.70;;;13.30;99.90;;;;;;6214988;23;20158;-74
2023/03/13 10:08:30;;;;;;;0.60;0.60;;;13.40;99.90;;;;;;6216317;23;20483;-74
2023/03/13 10:11:03;;;;;;;0.90;0.70;;;13.50;99.90;;;;;;6214791;23;20072;-75
2023/03/13 10:13:52;;;;;;;0.68;0.68;;;13.50;99.90;;;;;;6214806;23;20012;-74
2023/03/13 10:16:39;;;;;;;1.00;0.63;;;13.50;99.90;;;;;;6240582;23;20019;-74
2023/03/13 10:19:15;;;;;;;0.60;0.60;;;13.40;99.90;;;;;;6214725;23;20040;-74
2023/03/13 10:21:44;;;;;;;0.60;0.60;;;13.70;99.90;;;;;;6214688;23;20021;-75
2023/03/13 10:24:13;;;;;;;0.60;0.60;;;13.80;99.90;;;;;;6216488;23;20016;-74
2023/03/13 10:26:39;;;;;;;0.70;0.70;;;13.90;99.90;;;;;;6216508;23;20020;-74
2023/03/13 10:29:26;;;;;;;0.63;0.63;;;13.90;99.90;;;;;;6214468;23;20013;-74
2023/03/13 10:32:04;;;;;;;0.70;0.70;;;14.00;99.90;;;;;;6214435;23;20017;-75
2023/03/13 10:34:55;;;;;;;0.60;0.60;;;13.90;99.90;;;;;;6216282;23;20016;-74
2023/03/13 10:37:29;;;;;;;0.80;0.80;;;13.90;99.90;;;;;;6214591;23;20019;-74
2023/03/13 10:40:19;;;;;;;0.70;0.70;;;13.90;99.90;;;;;;6214435;23;20012;-75
2023/03/13 10:42:45;;;;;;;0.70;0.70;;;14.00;99.90;;;;;;6214911;23;20012;-74
2023/03/13 10:45:18;;;;;;;0.70;0.63;;;14.00;99.90;;;;;;6214353;23;20027;-74
2023/03/13 10:47:44;;;;;;;0.70;0.70;;;14.00;99.90;;;;;;6216335;23;20051;-74
2023/03/13 10:50:19;;;;;;;0.60;0.60;;;14.10;99.90;;;;;;6215761;23;20009;-74
2023/03/13 10:52:46;;;;;;;0.68;0.68;;;14.10;99.90;;;;;;6216254;23;20005;-74
2023/03/13 10:55:25;;;;;;;0.57;0.50;;;14.10;99.90;;;;;;6214130;23;20024;-74
2023/03/13 10:58:02;;;;;;;0.60;0.60;;;14.10;99.90;;;;;;6214363;23;20017;-74
2023/03/13 11:00:41;;;;;;;0.60;0.60;;;14.10;99.90;;;;;;6216287;23;20020;-75
2023/03/13 11:03:21;;;;;;;0.60;0.60;;;14.10;99.90;;;;;;6215894;23;20016;-75
2023/03/13 11:05:55;;;;;;;0.60;0.60;;;14.30;99.90;;;;;;6216525;23;20020;-75
2023/03/13 11:08:26;;;;;;;0.60;0.60;;;14.40;99.90;;;;;;6216184;23;20013;-75
2023/03/13 11:10:58;;;;;;;0.70;0.70;;;14.40;99.90;;;;;;6189181;23;20466;-74
2023/03/13 11:13:37;;;;;;;0.63;0.63;;;14.40;99.90;;;;;;6216305;23;20402;-74
2023/03/13 11:16:12;;;;;;;0.88;0.70;;;14.40;99.90;;;;;;6217780;23;20037;-74
2023/03/13 11:18:59;;;;;;;0.60;0.60;;;14.50;99.90;;;;;;6218114;23;20384;-74
2023/03/13 11:21:52;;;;;;;0.50;0.50;;;14.60;99.90;;;;;;6218173;23;20017;-74
2023/03/13 11:24:45;;;;;;;0.50;0.50;;;14.70;99.90;;;;;;6218538;23;20028;-74
2023/03/13 11:27:30;;;;;;;0.68;0.68;;;14.80;99.90;;;;;;6218308;23;20299;-75
2023/03/13 11:30:21;;;;;;;0.50;0.50;;;14.70;99.90;;;;;;6218014;23;20011;-76
2023/03/13 11:32:52;;;;;;;0.60;0.60;;;14.70;99.90;;;;;;6218055;23;20020;-74
2023/03/13 11:35:40;;;;;;;0.75;0.73;;;14.70;99.90;;;;;;6216131;23;20017;-74
2023/03/13 11:38:30;;;;;;;0.47;0.47;;;14.90;99.90;;;;;;6241438;23;20017;-73
2023/03/13 11:41:12;;;;;;;0.60;0.60;;;15.10;99.90;;;;;;6205309;23;20021;-73
2023/03/13 11:43:51;;;;;;;0.40;0.40;;;15.20;99.90;;;;;;6217903;23;20023;-72
2023/03/13 11:46:39;;;;;;;0.63;0.63;;;15.20;99.90;;;;;;6216118;23;20017;-72
2023/03/13 11:49:23;;;;;;;0.70;0.70;;;15.40;99.90;;;;;;6216402;23;20450;-72
2023/03/13 11:52:19;;;;;;;0.50;0.50;;;15.50;99.90;;;;;;6241840;23;20338;-72
2023/03/13 11:55:16;;;;;;;0.60;0.60;;;15.50;99.90;;;;;;6215934;23;20020;-73
2023/03/13 11:57:55;;;;;;;0.60;0.60;;;15.50;99.90;;;;;;6218004;23;20017;-73
2023/03/13 12:00:27;;;;;;;0.55;0.55;;;15.70;99.90;;;;;;6218046;23;20071;-72
2023/03/13 12:03:24;;;;;;;0.50;0.50;;;15.70;99.90;;;;;;6216097;23;20012;-73
2023/03/13 12:05:56;;;;;;;0.40;0.40;;;16.00;99.90;;;;;;6216043;23;20036;-73
2023/03/13 12:08:35;;;;;;;0.52;0.52;;;16.10;99.90;;;;;;6216035;23;20027;-73
2023/03/13 12:11:17;;;;;;;0.40;0.40;;;16.20;99.90;;;;;;6215848;23;20027;-73
2023/03/13 12:13:51;;;;;;;0.50;0.50;;;16.30;99.90;;;;;;6216007;23;20020;-74
2023/03/13 12:16:30;;;;;;;0.60;0.60;;;16.20;99.90;;;;;;6218177;23;20048;-74
2023/03/13 12:18:56;;;;;;;0.63;0.57;;;16.10;99.90;;;;;;6215852;23;20012;-73
2023/03/13 12:21:36;;;;;;;0.50;0.50;;;16.00;99.90;;;;;;6215910;23;20013;-73
2023/03/13 12:24:37;;;;;;;0.50;0.50;;;15.80;99.90;;;;;;6215743;23;20048;-74
2023/03/13 12:27:20;;;;;;;0.70;0.70;;;15.80;99.90;;;;;;6215457;23;20012;-73
2023/03/13 12:29:59;;;;;;;0.50;0.50;;;15.90;99.90;;;;;;6215743;23;20021;-73
2023/03/13 12:32:38;;;;;;;0.40;0.40;;;16.00;99.90;;;;;;6217627;23;20017;-75
2023/03/13 12:35:22;;;;;;;0.60;0.50;;;15.90;99.90;;;;;;6215744;23;20013;-78
2023/03/13 12:38:10;;;;;;;0.50;0.50;;;15.90;99.90;;;;;;6217640;23;20322;-77
2023/03/13 12:41:07;;;;;;;0.50;0.50;;;16.10;99.90;;;;;;6215604;23;20020;-76
2023/03/13 12:43:37;;;;;;;0.50;0.50;;;16.00;99.90;;;;;;6215575;23;20384;-72
2023/03/13 12:46:44;;;;;;;0.50;0.50;;;15.90;99.90;;;;;;6215401;23;20024;-72
2023/03/13 12:49:48;;;;;;;0.50;0.50;;;15.90;99.90;;;;;;6214385;23;20016;-72
2023/03/13 12:52:40;;;;;;;0.50;0.50;;;15.90;99.90;;;;;;6154940;23;20052;-72
2023/03/13 12:55:44;;;;;;;0.60;0.60;;;15.90;99.90;;;;;;6215187;23;20023;-72
2023/03/13 12:58:36;;;;;;;0.43;0.43;;;15.80;99.90;;;;;;6189287;23;20017;-72
2023/03/13 13:01:05;;;;;;;0.75;0.40;;;15.90;99.90;;;;;;6214602;23;20016;-72
2023/03/13 13:03:38;;;;;;;0.65;0.65;;;15.80;99.90;;;;;;6215739;23;20394;-72
2023/03/13 13:06:13;;;;;;;0.60;0.60;;;15.70;99.90;;;;;;6215509;23;20016;-72